createdAt,value
2023-01-06T00:01:21.976Z,12.20
2023-01-06T00:06:28.479Z,12.10
2023-01-06T00:11:32.123Z,12.10
2023-01-06T00:16:35.364Z,12.10
2023-01-06T00:21:42.476Z,12.10
2023-01-06T00:26:45.762Z,12.00
2023-01-06T00:31:48.845Z,12.00
2023-01-06T00:36:53.300Z,12.00
2023-01-06T00:42:05.251Z,12.00
2023-01-06T00:47:11.063Z,12.00
2023-01-06T00:52:15.868Z,12.00
2023-01-06T00:57:18.975Z,12.10
2023-01-06T01:02:22.770Z,12.10
2023-01-06T01:07:27.430Z,12.10
2023-01-06T01:12:30.595Z,12.10
2023-01-06T01:17:34.072Z,12.10
2023-01-06T01:22:38.577Z,12.10
2023-01-06T01:27:41.727Z,12.10
2023-01-06T01:32:44.795Z,12.10
2023-01-06T01:37:49.258Z,12.10
2023-01-06T01:42:52.402Z,12.10
2023-01-06T01:48:01.190Z,12.00
2023-01-06T01:53:10.133Z,12.00
2023-01-06T01:58:17.621Z,12.00
2023-01-06T02:03:22.322Z,12.00
2023-01-06T02:08:38.057Z,11.90
2023-01-06T02:13:44.358Z,11.90
2023-01-06T02:18:59.249Z,11.80
2023-01-06T02:24:41.170Z,11.80
2023-01-06T02:30:01.567Z,11.70
2023-01-06T02:35:25.052Z,11.70
2023-01-06T02:40:41.563Z,11.60
2023-01-06T02:45:51.033Z,11.50
2023-01-06T02:51:01.965Z,11.40
2023-01-06T02:56:05.742Z,11.30
2023-01-06T03:01:13.274Z,11.30
2023-01-06T03:06:20.934Z,11.20
2023-01-06T03:11:25.276Z,11.10
2023-01-06T03:16:28.744Z,11.00
2023-01-06T03:21:37.226Z,10.90
2023-01-06T03:26:41.097Z,10.80
2023-01-06T03:31:52.026Z,10.80
2023-01-06T03:37:03.134Z,10.80
2023-01-06T03:42:38.584Z,10.80
2023-01-06T03:47:53.481Z,10.80
2023-01-06T03:53:05.742Z,10.70
2023-01-06T03:58:12.018Z,10.60
2023-01-06T04:03:17.295Z,10.40
2023-01-06T04:08:22.094Z,10.30
2023-01-06T04:13:25.186Z,10.10
2023-01-06T04:18:28.275Z,10.10
2023-01-06T04:23:33.118Z,9.90
2023-01-06T04:28:36.232Z,9.90
2023-01-06T04:33:39.338Z,9.90
2023-01-06T04:38:43.907Z,10.00
2023-01-06T04:43:46.984Z,10.00
2023-01-06T04:48:50.092Z,10.00
2023-01-06T04:53:54.534Z,10.00
2023-01-06T04:58:58.668Z,10.00
2023-01-06T05:04:02.724Z,10.10
2023-01-06T05:09:07.419Z,10.10
2023-01-06T05:14:10.521Z,10.10
2023-01-06T05:19:13.786Z,10.20
2023-01-06T05:24:18.271Z,10.20
2023-01-06T05:29:21.407Z,10.20
2023-01-06T05:34:24.491Z,10.30
2023-01-06T05:39:28.969Z,10.30
2023-01-06T05:44:32.665Z,10.30
2023-01-06T05:49:35.733Z,10.30
2023-01-06T05:54:40.600Z,10.40
2023-01-06T05:59:43.874Z,10.40
2023-01-06T06:04:47.842Z,10.40
2023-01-06T06:09:52.299Z,10.40
2023-01-06T06:14:55.401Z,10.50
2023-01-06T06:19:58.516Z,10.50
2023-01-06T06:25:02.987Z,10.50
2023-01-06T06:30:07.459Z,10.50
2023-01-06T06:35:10.840Z,10.60
2023-01-06T06:40:15.593Z,10.60
2023-01-06T06:45:18.666Z,10.60
2023-01-06T06:50:22.056Z,10.60
2023-01-06T06:55:26.513Z,10.60
2023-01-06T07:00:29.744Z,10.60
2023-01-06T07:05:32.891Z,10.60
2023-01-06T07:10:37.492Z,10.60
2023-01-06T07:15:40.612Z,10.50
2023-01-06T07:20:48.585Z,10.50
2023-01-06T07:25:54.824Z,10.60
2023-01-06T07:30:58.241Z,10.50
2023-01-06T07:36:01.470Z,10.50
2023-01-06T07:41:06.125Z,10.40
2023-01-06T07:46:09.483Z,10.40
2023-01-06T07:51:12.639Z,10.40
2023-01-06T07:56:17.225Z,10.40
2023-01-06T08:01:20.399Z,10.40
2023-01-06T08:06:23.539Z,10.40
2023-01-06T08:11:27.995Z,10.40
2023-01-06T08:16:31.099Z,10.40
2023-01-06T08:21:34.330Z,10.40
2023-01-06T08:26:38.804Z,10.50
2023-01-06T08:31:42.074Z,10.50
2023-01-06T08:36:45.741Z,10.60
2023-01-06T08:41:51.944Z,10.60
2023-01-06T08:46:55.030Z,10.70
2023-01-06T08:51:58.168Z,10.90
2023-01-06T08:57:02.715Z,11.00
2023-01-06T09:02:06.742Z,11.20
2023-01-06T09:07:10.041Z,11.30
2023-01-06T09:12:14.486Z,11.40
2023-01-06T09:17:17.627Z,11.50
2023-01-06T09:22:20.794Z,11.60
2023-01-06T09:27:25.501Z,11.70
2023-01-06T09:32:28.636Z,11.80
2023-01-06T09:37:31.719Z,12.00
2023-01-06T09:42:46.590Z,12.10
2023-01-06T09:47:56.594Z,12.30
2023-01-06T09:53:04.748Z,12.40
2023-01-06T09:58:14.257Z,12.50
2023-01-06T10:03:20.067Z,12.70
2023-01-06T10:08:30.736Z,12.80
2023-01-06T10:13:48.465Z,12.90
2023-01-06T10:19:00.262Z,12.90
2023-01-06T10:24:33.414Z,13.10
2023-01-06T10:29:39.266Z,13.10
2023-01-06T10:34:42.882Z,13.20
2023-01-06T10:39:49.557Z,13.30
2023-01-06T10:44:54.280Z,13.30
2023-01-06T10:49:58.014Z,13.40
2023-01-06T10:55:06.322Z,13.50
2023-01-06T11:00:22.393Z,13.50
2023-01-06T11:05:28.365Z,13.70
2023-01-06T11:10:36.044Z,13.70
2023-01-06T11:15:43.106Z,13.90
2023-01-06T11:20:46.540Z,13.90
2023-01-06T11:26:03.176Z,14.00
2023-01-06T11:31:10.019Z,14.10
2023-01-06T11:36:15.200Z,14.20
2023-01-06T11:41:26.941Z,14.20
2023-01-06T11:46:31.472Z,14.10
2023-01-06T11:51:48.605Z,14.10
2023-01-06T11:56:59.849Z,14.00
2023-01-06T12:02:04.523Z,14.00
2023-01-06T12:07:20.413Z,14.00
2023-01-06T12:12:28.137Z,14.00
2023-01-06T12:17:43.455Z,14.00
2023-01-06T12:22:50.077Z,14.00
2023-01-06T12:27:57.615Z,14.00
2023-01-06T12:33:11.272Z,14.10
2023-01-06T12:38:30.153Z,14.10
2023-01-06T12:43:38.543Z,14.10
2023-01-06T12:48:48.674Z,14.20
2023-01-06T12:53:57.049Z,14.20
2023-01-06T12:59:13.363Z,14.20
2023-01-06T13:04:45.878Z,14.20
2023-01-06T13:09:59.889Z,14.10
2023-01-06T13:15:10.642Z,14.00
2023-01-06T13:20:22.029Z,13.90
2023-01-06T13:25:50.395Z,13.80
2023-01-06T13:31:20.614Z,13.70
2023-01-06T13:36:44.606Z,13.60
2023-01-06T13:41:55.760Z,13.60
2023-01-06T13:47:04.928Z,13.60
2023-01-06T13:52:17.139Z,13.60
2023-01-06T13:57:32.573Z,13.60
2023-01-06T14:03:02.665Z,13.60
2023-01-06T14:08:18.238Z,13.60
2023-01-06T14:13:24.278Z,13.60
2023-01-06T14:18:33.178Z,13.50
2023-01-06T14:23:38.260Z,13.50
2023-01-06T14:28:42.505Z,13.50
2023-01-06T14:33:46.173Z,13.50
2023-01-06T14:38:53.945Z,13.50
2023-01-06T14:44:01.327Z,13.40
2023-01-06T14:49:07.359Z,13.50
2023-01-06T14:54:22.840Z,13.50
2023-01-06T14:59:26.269Z,13.50
2023-01-06T15:04:31.963Z,13.50
2023-01-06T15:09:36.408Z,13.50
2023-01-06T15:14:39.544Z,13.50
2023-01-06T15:19:44.972Z,13.60
2023-01-06T15:24:50.507Z,13.60
2023-01-06T15:29:55.276Z,13.60
2023-01-06T15:34:59.527Z,13.60
2023-01-06T15:40:06.188Z,13.70
2023-01-06T15:45:24.732Z,13.70
2023-01-06T15:50:31.766Z,13.70
2023-01-06T15:55:40.153Z,13.70
2023-01-06T16:00:48.113Z,13.80
2023-01-06T16:06:00.184Z,13.80
2023-01-06T16:11:48.454Z,13.90
2023-01-06T16:16:51.843Z,13.90
2023-01-06T16:21:56.838Z,13.90
2023-01-06T16:27:03.579Z,13.90
2023-01-06T16:32:27.882Z,13.90
2023-01-06T16:37:34.498Z,13.90
2023-01-06T16:42:43.557Z,13.90
2023-01-06T16:47:47.133Z,13.90
2023-01-06T16:52:55.104Z,14.00
2023-01-06T16:58:01.041Z,14.00
2023-01-06T17:03:14.604Z,13.90
2023-01-06T17:08:22.732Z,14.00
2023-01-06T17:13:36.113Z,13.90
2023-01-06T17:18:49.299Z,13.90
2023-01-06T17:23:55.481Z,13.90
2023-01-06T17:29:02.262Z,13.90
2023-01-06T17:34:13.406Z,13.90
2023-01-06T17:39:22.979Z,13.90
2023-01-06T17:44:37.074Z,13.90
2023-01-06T17:49:40.342Z,13.90
2023-01-06T17:55:07.943Z,14.00
2023-01-06T18:00:23.020Z,13.90
2023-01-06T18:05:57.443Z,13.90
2023-01-06T18:11:17.217Z,13.90
2023-01-06T18:16:29.924Z,13.90
2023-01-06T18:21:37.344Z,13.90
2023-01-06T18:26:46.534Z,13.90
2023-01-06T18:31:52.272Z,13.90
2023-01-06T18:36:57.750Z,13.90
2023-01-06T18:42:29.521Z,13.90
2023-01-06T18:47:36.959Z,13.80
2023-01-06T18:52:43.058Z,13.90
2023-01-06T18:57:46.825Z,13.90
2023-01-06T19:02:53.192Z,13.90
2023-01-06T19:07:58.155Z,13.90
2023-01-06T19:13:02.158Z,13.90
2023-01-06T19:18:13.594Z,13.80
2023-01-06T19:23:20.216Z,13.80
2023-01-06T19:28:26.301Z,13.70
2023-01-06T19:33:40.876Z,13.60
2023-01-06T19:38:45.133Z,13.50
2023-01-06T19:43:49.261Z,13.50
2023-01-06T19:48:55.672Z,13.40
2023-01-06T19:54:03.451Z,13.40
2023-01-06T19:59:15.320Z,13.40
2023-01-06T20:04:23.132Z,13.30
2023-01-06T20:09:26.354Z,13.30
2023-01-06T20:14:29.621Z,13.30
2023-01-06T20:19:34.195Z,13.30
2023-01-06T20:24:37.323Z,13.30
2023-01-06T20:29:40.447Z,13.20
2023-01-06T20:34:45.009Z,13.20
2023-01-06T20:39:48.139Z,13.20
2023-01-06T20:44:51.247Z,13.20
2023-01-06T20:49:56.769Z,13.20
2023-01-06T20:54:59.922Z,13.10
2023-01-06T21:00:03.255Z,13.10
2023-01-06T21:05:08.843Z,13.10
2023-01-06T21:10:12.105Z,13.10
2023-01-06T21:15:15.629Z,13.10
2023-01-06T21:20:20.576Z,13.10
2023-01-06T21:25:24.874Z,13.10
2023-01-06T21:30:29.080Z,13.10
2023-01-06T21:35:33.828Z,13.10
2023-01-06T21:40:37.092Z,13.10
2023-01-06T21:45:41.621Z,13.10
2023-01-06T21:50:47.546Z,13.00
2023-01-06T21:55:51.687Z,13.00
2023-01-06T22:00:56.198Z,12.90
2023-01-06T22:06:02.186Z,12.90
2023-01-06T22:11:05.545Z,12.90
2023-01-06T22:16:09.983Z,12.90
2023-01-06T22:21:15.079Z,12.80
2023-01-06T22:26:18.206Z,12.80
2023-01-06T22:31:21.402Z,12.80
2023-01-06T22:36:25.956Z,12.70
2023-01-06T22:41:29.079Z,12.70
2023-01-06T22:46:32.392Z,12.70
2023-01-06T22:51:37.079Z,12.70
2023-01-06T22:56:41.864Z,12.70
2023-01-06T23:01:45.578Z,12.70
2023-01-06T23:06:50.237Z,12.70
2023-01-06T23:11:53.757Z,12.80
2023-01-06T23:16:56.977Z,12.80
2023-01-06T23:22:01.464Z,12.80
2023-01-06T23:27:04.606Z,12.90
2023-01-06T23:32:07.689Z,12.90
2023-01-06T23:37:12.146Z,12.90
2023-01-06T23:42:15.202Z,12.90
2023-01-06T23:47:18.453Z,12.90
2023-01-06T23:52:23.121Z,12.90
2023-01-06T23:57:26.178Z,12.90
